createdAt,value
2023-03-16T00:03:41.839Z,2.55
2023-03-16T00:10:27.553Z,2.00
2023-03-16T00:17:19.852Z,2.28
2023-03-16T00:24:03.889Z,2.33
2023-03-16T00:30:48.251Z,2.28
2023-03-16T00:37:33.007Z,2.53
2023-03-16T00:44:15.416Z,2.60
2023-03-16T00:50:57.643Z,3.63
2023-03-16T00:57:39.880Z,3.10
2023-03-16T01:04:23.254Z,5.43
2023-03-16T01:11:18.716Z,8.40
2023-03-16T01:18:01.860Z,5.68
2023-03-16T01:24:45.395Z,7.55
2023-03-16T01:31:29.315Z,8.38
2023-03-16T01:38:12.148Z,77.07
2023-03-16T01:45:02.162Z,130.98
2023-03-16T01:51:56.360Z,78.65
2023-03-16T01:58:42.997Z,104.65
2023-03-16T02:05:54.600Z,82.35
2023-03-16T02:12:39.501Z,20.42
2023-03-16T02:20:16.327Z,12.52
2023-03-16T02:27:08.290Z,25.10
2023-03-16T02:33:54.197Z,23.15
2023-03-16T02:40:38.784Z,39.53
2023-03-16T02:47:41.649Z,16.67
2023-03-16T02:54:24.645Z,21.65
2023-03-16T03:01:07.808Z,11.25
2023-03-16T03:07:51.475Z,3.60
2023-03-16T03:14:38.090Z,3.47
2023-03-16T03:21:21.613Z,3.72
2023-03-16T03:28:08.533Z,3.67
2023-03-16T03:34:51.338Z,3.28
2023-03-16T03:41:34.388Z,3.60
2023-03-16T03:48:18.557Z,3.60
2023-03-16T03:55:00.910Z,3.83
2023-03-16T04:01:43.503Z,3.95
2023-03-16T04:08:26.154Z,4.03
2023-03-16T04:15:10.003Z,3.67
2023-03-16T04:22:02.125Z,3.80
2023-03-16T04:28:44.761Z,4.72
2023-03-16T04:35:32.061Z,4.68
2023-03-16T04:42:14.642Z,3.75
2023-03-16T04:48:58.453Z,4.55
2023-03-16T05:02:27.242Z,2.72
2023-03-16T05:09:12.131Z,3.30
2023-03-16T05:15:55.561Z,3.40
2023-03-16T05:22:46.210Z,4.05
2023-03-16T05:29:36.507Z,3.92
2023-03-16T05:36:19.635Z,4.88
2023-03-16T05:43:05.496Z,3.85
2023-03-16T05:49:52.379Z,3.20
2023-03-16T05:56:40.654Z,3.55
2023-03-16T06:03:23.053Z,2.85
2023-03-16T06:10:08.007Z,4.35
2023-03-16T06:16:50.839Z,4.30
2023-03-16T06:23:34.145Z,4.38
2023-03-16T06:30:17.836Z,3.83
2023-03-16T06:37:00.348Z,3.97
2023-03-16T06:43:43.198Z,3.30
2023-03-16T06:50:27.776Z,3.25
2023-03-16T06:57:10.729Z,4.70
2023-03-16T07:03:53.100Z,4.25
2023-03-16T07:10:40.210Z,4.50
2023-03-16T07:17:22.458Z,5.40
2023-03-16T07:24:06.089Z,4.20
2023-03-16T07:31:02.836Z,4.32
2023-03-16T07:44:31.394Z,4.35
2023-03-16T07:51:14.909Z,5.28
2023-03-16T07:58:01.843Z,3.50
2023-03-16T08:04:48.672Z,4.68
2023-03-16T08:11:31.281Z,4.00
2023-03-16T08:18:17.731Z,3.88
2023-03-16T08:25:00.874Z,9.25
2023-03-16T08:31:43.299Z,3.67
2023-03-16T08:38:36.000Z,3.15
2023-03-16T08:45:23.521Z,5.63
2023-03-16T08:52:06.459Z,4.45
2023-03-16T08:58:50.488Z,4.15
2023-03-16T09:05:34.164Z,3.93
2023-03-16T09:12:16.411Z,4.38
2023-03-16T09:18:59.251Z,3.83
2023-03-16T09:25:41.769Z,4.70
2023-03-16T09:32:23.970Z,3.75
2023-03-16T09:39:06.256Z,2.38
2023-03-16T09:46:17.833Z,2.10
2023-03-16T09:53:34.301Z,2.75
2023-03-16T10:00:45.317Z,2.10
2023-03-16T10:07:52.281Z,2.28
2023-03-16T10:15:04.718Z,1.85
2023-03-16T10:21:49.137Z,2.28
2023-03-16T10:28:34.831Z,1.60
2023-03-16T10:35:31.847Z,1.73
2023-03-16T10:42:21.392Z,1.45
2023-03-16T10:49:03.640Z,1.50
2023-03-16T10:55:48.140Z,1.65
2023-03-16T11:02:35.416Z,4.30
2023-03-16T11:09:33.710Z,2.38
2023-03-16T11:16:33.230Z,1.55
2023-03-16T11:23:18.405Z,1.63
2023-03-16T11:30:25.439Z,1.58
2023-03-16T11:37:40.168Z,1.10
2023-03-16T11:45:12.651Z,2.40
2023-03-16T11:52:09.727Z,1.38
2023-03-16T12:00:01.412Z,1.73
2023-03-16T12:07:06.090Z,6.63
2023-03-16T12:14:09.165Z,1.80
2023-03-16T12:21:01.810Z,1.75
2023-03-16T12:27:45.541Z,1.60
2023-03-16T12:34:45.780Z,1.77
2023-03-16T12:42:06.461Z,1.58
2023-03-16T12:48:55.944Z,1.85
2023-03-16T12:55:38.353Z,1.70
2023-03-16T13:02:31.572Z,1.15
2023-03-16T13:09:27.408Z,1.48
2023-03-16T13:16:23.706Z,1.73
2023-03-16T13:23:18.451Z,1.42
2023-03-16T13:30:18.176Z,1.40
2023-03-16T13:37:01.710Z,1.77
2023-03-16T13:43:44.302Z,2.10
2023-03-16T13:50:26.996Z,2.72
2023-03-16T13:57:12.786Z,3.00
2023-03-16T14:04:08.802Z,2.50
2023-03-16T14:10:54.469Z,2.22
2023-03-16T14:17:36.680Z,1.65
2023-03-16T14:24:33.814Z,1.55
2023-03-16T14:31:20.907Z,1.30
2023-03-16T14:38:43.792Z,1.40
2023-03-16T14:45:34.076Z,1.42
2023-03-16T14:52:21.675Z,1.70
2023-03-16T14:59:03.996Z,1.40
2023-03-16T15:05:49.615Z,1.13
2023-03-16T15:12:32.084Z,1.00
2023-03-16T15:19:14.796Z,1.70
2023-03-16T15:26:02.811Z,2.08
2023-03-16T15:32:45.290Z,3.67
2023-03-16T15:39:28.337Z,4.03
2023-03-16T15:46:11.138Z,2.35
2023-03-16T15:52:59.986Z,1.55
2023-03-16T15:59:42.256Z,1.75
2023-03-16T16:06:24.791Z,3.00
2023-03-16T16:13:14.053Z,19.95
2023-03-16T16:19:56.880Z,1.80
2023-03-16T16:26:51.925Z,4.70
2023-03-16T16:33:37.245Z,4.38
2023-03-16T16:40:26.004Z,2.72
2023-03-16T16:47:23.768Z,5.05
2023-03-16T16:54:25.577Z,3.40
2023-03-16T17:01:23.660Z,2.67
2023-03-16T17:08:06.493Z,3.95
2023-03-16T17:14:49.907Z,5.13
2023-03-16T17:21:32.283Z,4.78
2023-03-16T17:28:16.817Z,5.85
2023-03-16T17:34:59.158Z,5.80
2023-03-16T17:41:42.020Z,6.40
2023-03-16T17:48:24.652Z,9.13
2023-03-16T17:55:08.019Z,12.23
2023-03-16T18:01:51.214Z,11.98
2023-03-16T18:08:35.957Z,11.25
2023-03-16T18:15:20.352Z,10.23
2023-03-16T18:22:02.540Z,8.90
2023-03-16T18:28:45.725Z,16.38
2023-03-16T18:35:28.395Z,19.90
2023-03-16T18:42:26.330Z,15.52
2023-03-16T18:49:36.035Z,18.20
2023-03-16T18:56:27.169Z,19.90
2023-03-16T19:03:31.786Z,14.32
2023-03-16T19:10:30.153Z,8.70
2023-03-16T19:17:12.380Z,8.75
2023-03-16T19:24:00.940Z,6.20
2023-03-16T19:30:43.761Z,5.75
2023-03-16T19:37:26.758Z,6.07
2023-03-16T19:44:22.420Z,5.45
2023-03-16T19:51:06.191Z,5.60
2023-03-16T19:57:54.125Z,6.45
2023-03-16T20:04:38.277Z,5.85
2023-03-16T20:11:30.199Z,7.22
2023-03-16T20:18:18.355Z,18.02
2023-03-16T20:25:05.207Z,25.42
2023-03-16T20:31:47.605Z,30.42
2023-03-16T20:38:30.016Z,32.17
2023-03-16T20:45:28.538Z,27.27
2023-03-16T20:52:17.781Z,19.13
2023-03-16T20:59:00.120Z,12.07
2023-03-16T21:05:42.801Z,19.98
2023-03-16T21:12:32.200Z,14.07
2023-03-16T21:19:21.210Z,11.10
2023-03-16T21:26:03.945Z,16.25
2023-03-16T21:32:46.497Z,14.48
2023-03-16T21:39:29.404Z,18.05
2023-03-16T21:46:21.411Z,20.23
2023-03-16T21:53:04.449Z,16.55
2023-03-16T21:59:47.156Z,15.25
2023-03-16T22:06:29.899Z,14.40
2023-03-16T22:13:12.129Z,13.73
2023-03-16T22:19:54.337Z,10.63
2023-03-16T22:26:37.484Z,12.77
2023-03-16T22:33:28.271Z,9.57
2023-03-16T22:40:18.561Z,18.13
2023-03-16T22:47:00.982Z,11.88
2023-03-16T22:53:45.920Z,10.18
2023-03-16T23:00:28.860Z,10.15
2023-03-16T23:07:15.040Z,10.23
2023-03-16T23:13:58.091Z,13.70
2023-03-16T23:20:40.541Z,23.67
2023-03-16T23:27:24.008Z,25.95
2023-03-16T23:34:16.406Z,25.73
2023-03-16T23:40:58.824Z,21.70
2023-03-16T23:47:41.249Z,19.58
2023-03-16T23:54:31.446Z,17.38
